createdAt,value
2023-01-21T00:01:20.378Z,0.42
2023-01-21T00:03:48.684Z,0.42
2023-01-21T00:06:16.629Z,0.43
2023-01-21T00:08:44.505Z,0.44
2023-01-21T00:11:16.435Z,0.44
2023-01-21T00:13:45.379Z,0.43
2023-01-21T00:16:13.705Z,0.46
2023-01-21T00:18:41.686Z,0.47
2023-01-21T00:21:09.527Z,0.45
2023-01-21T00:23:37.455Z,0.44
2023-01-21T00:26:06.231Z,0.44
2023-01-21T00:28:35.448Z,0.43
2023-01-21T00:31:05.256Z,0.43
2023-01-21T00:33:33.458Z,0.43
2023-01-21T00:36:03.387Z,0.44
2023-01-21T00:38:31.448Z,0.46
2023-01-21T00:41:03.320Z,0.46
2023-01-21T00:43:31.336Z,0.47
2023-01-21T00:45:59.305Z,0.46
2023-01-21T00:48:28.896Z,0.46
2023-01-21T00:50:59.483Z,0.45
2023-01-21T00:53:28.237Z,0.45
2023-01-21T00:56:02.271Z,0.45
2023-01-21T00:58:30.423Z,0.44
2023-01-21T01:01:06.306Z,0.44
2023-01-21T01:03:34.224Z,0.43
2023-01-21T01:06:06.950Z,0.41
2023-01-21T01:08:34.958Z,0.42
2023-01-21T01:11:02.966Z,0.41
2023-01-21T01:13:31.011Z,0.41
2023-01-21T01:15:59.137Z,0.41
2023-01-21T01:18:27.415Z,0.36
2023-01-21T01:20:55.247Z,0.25
2023-01-21T01:23:23.271Z,0.24
2023-01-21T01:25:58.376Z,0.23
2023-01-21T01:28:26.346Z,0.23
2023-01-21T01:30:54.372Z,0.23
2023-01-21T01:33:22.692Z,0.24
2023-01-21T01:35:50.766Z,0.26
2023-01-21T01:38:20.595Z,0.26
2023-01-21T01:40:49.251Z,0.26
2023-01-21T01:43:27.958Z,0.24
2023-01-21T01:45:56.070Z,0.27
2023-01-21T01:48:26.279Z,0.28
2023-01-21T01:50:54.170Z,0.26
2023-01-21T01:53:22.029Z,0.27
2023-01-21T01:59:59.928Z,0.25
2023-01-21T02:02:27.917Z,0.24
2023-01-21T02:04:57.081Z,0.19
2023-01-21T02:07:25.516Z,0.19
2023-01-21T02:09:53.818Z,0.17
2023-01-21T02:12:22.178Z,0.17
2023-01-21T02:14:50.124Z,0.16
2023-01-21T02:17:40.006Z,0.16
2023-01-21T02:20:21.806Z,0.16
2023-01-21T02:23:21.315Z,0.14
2023-01-21T02:26:23.236Z,0.15
2023-01-21T02:29:26.269Z,0.12
2023-01-21T02:32:41.536Z,0.11
2023-01-21T02:35:15.492Z,0.10
2023-01-21T02:37:57.790Z,0.09
2023-01-21T02:40:27.511Z,0.08
2023-01-21T02:43:02.906Z,0.07
2023-01-21T02:45:47.898Z,0.06
2023-01-21T02:48:23.580Z,0.07
2023-01-21T02:50:52.900Z,0.05
2023-01-21T02:57:50.005Z,0.06
2023-01-21T03:00:34.393Z,0.05
2023-01-21T03:03:33.685Z,0.05
2023-01-21T03:06:20.877Z,0.04
2023-01-21T03:08:54.546Z,0.03
2023-01-21T03:11:22.929Z,0.02
2023-01-21T03:14:21.447Z,0.01
2023-01-21T03:16:58.892Z,-0.01
2023-01-21T03:19:44.364Z,-0.02
2023-01-21T03:22:15.682Z,-0.03
2023-01-21T03:24:45.989Z,-0.03
2023-01-21T03:27:15.313Z,-0.03
2023-01-21T03:29:43.085Z,-0.04
2023-01-21T03:32:13.372Z,-0.05
2023-01-21T03:34:43.237Z,-0.06
2023-01-21T03:37:38.813Z,-0.05
2023-01-21T03:40:22.077Z,-0.05
2023-01-21T03:42:51.492Z,-0.06
2023-01-21T03:45:41.702Z,-0.07
2023-01-21T03:48:17.842Z,-0.10
2023-01-21T03:50:50.403Z,-0.12
2023-01-21T03:53:18.525Z,-0.12
2023-01-21T03:55:46.302Z,-0.12
2023-01-21T03:58:15.361Z,-0.14
2023-01-21T04:00:43.535Z,-0.16
2023-01-21T04:03:11.344Z,-0.17
2023-01-21T04:05:39.988Z,-0.16
2023-01-21T04:08:12.516Z,-0.16
2023-01-21T04:10:42.703Z,-0.16
2023-01-21T04:13:11.414Z,-0.15
2023-01-21T04:15:39.237Z,-0.12
2023-01-21T04:18:07.619Z,-0.11
2023-01-21T04:20:35.826Z,-0.12
2023-01-21T04:23:03.617Z,-0.13
2023-01-21T04:25:31.804Z,-0.12
2023-01-21T04:27:59.883Z,-0.15
2023-01-21T04:30:27.942Z,-0.17
2023-01-21T04:32:55.827Z,-0.15
2023-01-21T04:35:27.538Z,-0.13
2023-01-21T04:37:55.682Z,-0.16
2023-01-21T04:40:23.296Z,-0.15
2023-01-21T04:42:51.361Z,-0.11
2023-01-21T04:45:19.574Z,-0.12
2023-01-21T04:47:47.834Z,-0.14
2023-01-21T04:50:16.261Z,-0.14
2023-01-21T04:52:44.373Z,-0.14
2023-01-21T04:55:14.736Z,-0.14
2023-01-21T04:57:44.609Z,-0.14
2023-01-21T05:00:13.832Z,-0.15
2023-01-21T05:02:42.031Z,-0.14
2023-01-21T05:05:09.959Z,-0.13
2023-01-21T05:07:38.645Z,-0.14
2023-01-21T05:10:06.886Z,-0.13
2023-01-21T05:12:35.170Z,-0.13
2023-01-21T05:15:03.835Z,-0.14
2023-01-21T05:17:32.145Z,-0.16
2023-01-21T05:20:00.674Z,-0.18
2023-01-21T05:22:29.780Z,-0.18
2023-01-21T05:24:57.820Z,-0.21
2023-01-21T05:27:25.842Z,-0.22
2023-01-21T05:29:54.324Z,-0.23
2023-01-21T05:32:22.491Z,-0.23
2023-01-21T05:34:50.348Z,-0.25
2023-01-21T05:37:18.731Z,-0.23
2023-01-21T05:39:47.371Z,-0.26
2023-01-21T05:42:15.250Z,-0.24
2023-01-21T05:44:43.270Z,-0.22
2023-01-21T05:47:11.559Z,-0.21
2023-01-21T05:49:39.837Z,-0.20
2023-01-21T05:52:07.938Z,-0.16
2023-01-21T05:54:35.898Z,-0.13
2023-01-21T05:57:04.023Z,-0.14
2023-01-21T05:59:32.672Z,-0.14
2023-01-21T06:02:00.582Z,-0.10
2023-01-21T06:04:31.114Z,-0.10
2023-01-21T06:06:59.537Z,-0.08
2023-01-21T06:09:28.430Z,-0.08
2023-01-21T06:11:57.254Z,-0.06
2023-01-21T06:14:25.513Z,-0.03
2023-01-21T06:16:55.962Z,-0.02
2023-01-21T06:19:27.211Z,0.01
2023-01-21T06:21:57.122Z,0.04
2023-01-21T06:24:25.569Z,0.09
2023-01-21T06:26:54.963Z,0.15
2023-01-21T06:29:23.654Z,0.20
2023-01-21T06:31:52.218Z,0.25
2023-01-21T06:34:20.333Z,0.29
2023-01-21T06:36:48.320Z,0.35
2023-01-21T06:39:16.371Z,0.42
2023-01-21T06:41:44.538Z,0.48
2023-01-21T06:44:13.034Z,0.58
2023-01-21T06:46:45.858Z,0.64
2023-01-21T06:49:18.294Z,0.71
2023-01-21T06:51:46.360Z,0.79
2023-01-21T06:54:14.460Z,0.83
2023-01-21T06:56:44.506Z,0.89
2023-01-21T06:59:12.885Z,0.94
2023-01-21T07:01:41.079Z,1.00
2023-01-21T07:04:09.627Z,1.09
2023-01-21T07:06:38.936Z,1.16
2023-01-21T07:09:08.069Z,1.23
2023-01-21T07:11:37.138Z,1.28
2023-01-21T07:14:09.014Z,1.22
2023-01-21T07:16:38.669Z,1.25
2023-01-21T07:19:08.313Z,1.34
2023-01-21T07:21:37.109Z,1.44
2023-01-21T07:24:05.347Z,1.52
2023-01-21T07:26:36.755Z,1.62
2023-01-21T07:29:08.818Z,1.71
2023-01-21T07:31:37.370Z,1.77
2023-01-21T07:34:06.014Z,1.87
2023-01-21T07:36:34.837Z,1.96
2023-01-21T07:39:03.706Z,2.04
2023-01-21T07:41:31.816Z,2.09
2023-01-21T07:44:00.162Z,2.13
2023-01-21T07:46:28.699Z,2.19
2023-01-21T07:48:57.706Z,2.24
2023-01-21T07:51:26.374Z,2.30
2023-01-21T07:53:57.243Z,2.34
2023-01-21T07:56:27.654Z,2.34
2023-01-21T07:58:56.297Z,2.39
2023-01-21T08:01:29.163Z,2.44
2023-01-21T08:04:00.625Z,2.54
2023-01-21T08:06:29.724Z,2.60
2023-01-21T08:08:58.995Z,2.66
2023-01-21T08:11:27.370Z,2.74
2023-01-21T08:13:55.954Z,2.86
2023-01-21T08:16:25.007Z,2.97
2023-01-21T08:18:53.727Z,3.08
2023-01-21T08:21:22.049Z,3.18
2023-01-21T08:23:50.261Z,3.24
2023-01-21T08:27:10.383Z,3.36
2023-01-21T08:30:04.449Z,3.50
2023-01-21T08:32:36.827Z,3.59
2023-01-21T08:35:05.521Z,3.66
2023-01-21T08:37:33.684Z,3.76
2023-01-21T08:43:47.168Z,4.04
2023-01-21T08:46:15.668Z,4.13
2023-01-21T08:48:44.915Z,4.21
2023-01-21T08:51:14.204Z,4.28
2023-01-21T08:53:43.204Z,4.33
2023-01-21T08:56:11.572Z,4.41
2023-01-21T08:58:39.691Z,4.51
2023-01-21T09:01:09.778Z,4.60
2023-01-21T09:03:38.960Z,4.70
2023-01-21T09:06:07.906Z,4.76
2023-01-21T09:08:37.819Z,4.76
2023-01-21T09:11:07.610Z,4.87
2023-01-21T09:13:37.942Z,4.95
2023-01-21T09:16:33.068Z,5.04
2023-01-21T09:19:02.293Z,5.11
2023-01-21T09:21:31.260Z,5.18
2023-01-21T09:23:59.544Z,5.21
2023-01-21T09:26:28.338Z,5.34
2023-01-21T09:28:58.330Z,5.45
2023-01-21T09:31:27.119Z,5.50
2023-01-21T09:34:00.788Z,5.61
2023-01-21T09:36:30.563Z,5.70
2023-01-21T09:38:58.677Z,5.78
2023-01-21T09:41:35.373Z,5.86
2023-01-21T09:44:17.966Z,5.94
2023-01-21T09:47:28.685Z,6.00
2023-01-21T09:49:58.081Z,6.08
2023-01-21T09:52:45.380Z,6.12
2023-01-21T09:55:13.636Z,6.16
2023-01-21T09:58:09.206Z,6.22
2023-01-21T10:00:50.654Z,6.34
2023-01-21T10:03:38.634Z,6.46
2023-01-21T10:06:18.815Z,6.57
2023-01-21T10:09:22.284Z,6.63
2023-01-21T10:11:59.986Z,6.68
2023-01-21T10:14:46.161Z,6.70
2023-01-21T10:17:26.348Z,6.73
2023-01-21T10:20:01.075Z,6.78
2023-01-21T10:22:29.301Z,6.75
2023-01-21T10:25:02.571Z,6.79
2023-01-21T10:27:33.113Z,6.82
2023-01-21T10:30:29.284Z,6.84
2023-01-21T10:32:57.928Z,6.87
2023-01-21T10:35:37.930Z,6.91
2023-01-21T10:38:19.361Z,6.96
2023-01-21T10:40:57.118Z,7.04
2023-01-21T10:43:41.489Z,7.06
2023-01-21T10:46:22.458Z,7.10
2023-01-21T10:48:58.149Z,7.16
2023-01-21T10:51:32.481Z,7.21
2023-01-21T10:54:05.197Z,7.22
2023-01-21T10:57:21.949Z,7.26
2023-01-21T10:59:51.168Z,7.32
2023-01-21T11:02:34.147Z,7.26
2023-01-21T11:05:04.584Z,7.26
2023-01-21T11:07:37.446Z,7.25
2023-01-21T11:10:06.611Z,7.26
2023-01-21T11:12:35.133Z,7.30
2023-01-21T11:15:14.061Z,7.32
2023-01-21T11:17:44.647Z,7.33
2023-01-21T11:20:40.719Z,7.35
2023-01-21T11:23:28.783Z,7.35
2023-01-21T11:26:10.407Z,7.31
2023-01-21T11:28:41.362Z,7.27
2023-01-21T11:31:27.780Z,7.25
2023-01-21T11:33:57.706Z,7.27
2023-01-21T11:36:26.395Z,7.29
2023-01-21T11:39:10.910Z,7.31
2023-01-21T11:41:39.421Z,7.33
2023-01-21T11:44:21.080Z,7.33
2023-01-21T11:46:51.632Z,7.37
2023-01-21T11:49:27.033Z,7.42
2023-01-21T11:52:28.173Z,7.44
2023-01-21T11:54:56.676Z,7.44
2023-01-21T11:57:31.052Z,7.39
2023-01-21T12:00:17.274Z,7.35
2023-01-21T12:02:58.428Z,7.31
2023-01-21T12:05:33.119Z,7.24
2023-01-21T12:08:01.416Z,7.17
2023-01-21T12:10:38.231Z,7.11
2023-01-21T12:13:30.036Z,7.07
2023-01-21T12:16:31.676Z,7.05
2023-01-21T12:19:21.162Z,7.02
2023-01-21T12:22:17.503Z,6.91
2023-01-21T12:25:04.734Z,6.84
2023-01-21T12:27:54.422Z,6.77
2023-01-21T12:30:26.146Z,6.72
2023-01-21T12:33:01.551Z,6.62
2023-01-21T12:35:36.841Z,6.57
2023-01-21T12:38:15.790Z,6.51
2023-01-21T12:40:55.943Z,6.45
2023-01-21T12:43:27.444Z,6.40
2023-01-21T12:46:20.170Z,6.34
2023-01-21T12:48:54.928Z,6.23
2023-01-21T12:51:29.977Z,6.19
2023-01-21T12:54:00.047Z,6.14
2023-01-21T12:56:44.898Z,6.08
2023-01-21T12:59:31.773Z,6.01
2023-01-21T13:02:15.195Z,5.91
2023-01-21T13:05:02.547Z,5.82
2023-01-21T13:07:34.524Z,5.65
2023-01-21T13:10:14.630Z,5.53
2023-01-21T13:12:44.516Z,5.44
2023-01-21T13:15:19.016Z,5.33
2023-01-21T13:17:56.542Z,5.19
2023-01-21T13:20:25.748Z,5.08
2023-01-21T13:23:26.167Z,4.98
2023-01-21T13:25:59.470Z,4.84
2023-01-21T13:28:46.072Z,4.73
2023-01-21T13:31:35.677Z,4.59
2023-01-21T13:34:13.236Z,4.44
2023-01-21T13:36:55.949Z,4.35
2023-01-21T13:39:29.172Z,4.23
2023-01-21T13:42:20.496Z,4.14
2023-01-21T13:44:53.054Z,4.04
2023-01-21T13:47:56.400Z,3.95
2023-01-21T13:50:37.677Z,3.83
2023-01-21T13:53:33.479Z,3.74
2023-01-21T13:56:19.433Z,3.66
2023-01-21T13:58:59.772Z,3.61
2023-01-21T14:01:35.932Z,3.48
2023-01-21T14:04:09.158Z,3.39
2023-01-21T14:06:46.147Z,3.32
2023-01-21T14:09:19.832Z,3.23
2023-01-21T14:11:58.283Z,3.12
2023-01-21T14:14:52.094Z,2.98
2023-01-21T14:17:39.726Z,2.86
2023-01-21T14:23:48.417Z,2.62
2023-01-21T14:26:42.815Z,2.46
2023-01-21T14:29:32.639Z,2.33
2023-01-21T14:32:23.163Z,2.25
2023-01-21T14:34:54.731Z,2.15
2023-01-21T14:37:33.082Z,2.07
2023-01-21T14:40:20.366Z,1.94
2023-01-21T14:42:50.491Z,1.86
2023-01-21T14:45:22.747Z,1.78
2023-01-21T14:47:55.546Z,1.70
2023-01-21T14:50:51.966Z,1.62
2023-01-21T14:53:26.086Z,1.58
2023-01-21T14:56:16.091Z,1.54
2023-01-21T14:59:11.620Z,1.44
2023-01-21T15:01:43.019Z,1.38
2023-01-21T15:04:30.374Z,1.30
2023-01-21T15:07:09.322Z,1.26
2023-01-21T15:09:39.100Z,1.16
2023-01-21T15:12:14.932Z,1.06
2023-01-21T15:14:45.555Z,1.02
2023-01-21T15:17:46.713Z,0.97
2023-01-21T15:20:42.252Z,0.88
2023-01-21T15:23:29.301Z,0.81
2023-01-21T15:26:13.695Z,0.76
2023-01-21T15:28:48.253Z,0.71
2023-01-21T15:31:19.933Z,0.68
2023-01-21T15:33:55.362Z,0.65
2023-01-21T15:36:33.244Z,0.59
2023-01-21T15:39:23.568Z,0.55
2023-01-21T15:42:26.016Z,0.53
2023-01-21T15:45:06.168Z,0.45
2023-01-21T15:47:58.736Z,0.40
2023-01-21T15:50:46.837Z,0.32
2023-01-21T15:53:39.459Z,0.29
2023-01-21T15:56:13.266Z,0.20
2023-01-21T15:58:57.713Z,0.14
2023-01-21T16:01:37.634Z,0.10
2023-01-21T16:04:45.398Z,0.06
2023-01-21T16:07:29.549Z,-0.00
2023-01-21T16:10:10.785Z,-0.04
2023-01-21T16:13:04.386Z,-0.06
2023-01-21T16:15:56.434Z,-0.09
2023-01-21T16:18:53.843Z,-0.13
2023-01-21T16:21:25.779Z,-0.18
2023-01-21T16:23:54.825Z,-0.22
2023-01-21T16:26:31.264Z,-0.24
2023-01-21T16:29:04.219Z,-0.26
2023-01-21T16:31:48.298Z,-0.25
2023-01-21T16:34:40.380Z,-0.26
2023-01-21T16:37:35.403Z,-0.28
2023-01-21T16:40:32.223Z,-0.28
2023-01-21T16:43:23.491Z,-0.30
2023-01-21T16:46:04.252Z,-0.31
2023-01-21T16:48:35.354Z,-0.30
2023-01-21T16:51:04.260Z,-0.32
2023-01-21T16:53:33.572Z,-0.36
2023-01-21T16:56:12.139Z,-0.38
2023-01-21T16:58:41.841Z,-0.39
2023-01-21T17:01:23.835Z,-0.39
2023-01-21T17:03:53.832Z,-0.40
2023-01-21T17:06:31.179Z,-0.38
2023-01-21T17:09:07.964Z,-0.42
2023-01-21T17:11:40.511Z,-0.41
2023-01-21T17:14:16.193Z,-0.40
2023-01-21T17:16:49.104Z,-0.43
2023-01-21T17:19:24.303Z,-0.43
2023-01-21T17:21:59.334Z,-0.45
2023-01-21T17:24:39.361Z,-0.44
2023-01-21T17:27:14.514Z,-0.46
2023-01-21T17:29:45.921Z,-0.47
2023-01-21T17:32:35.051Z,-0.46
2023-01-21T17:35:22.790Z,-0.46
2023-01-21T17:38:03.464Z,-0.46
2023-01-21T17:40:42.878Z,-0.46
2023-01-21T17:43:21.915Z,-0.44
2023-01-21T17:45:52.390Z,-0.46
2023-01-21T17:48:24.849Z,-0.47
2023-01-21T17:51:02.210Z,-0.50
2023-01-21T17:53:36.104Z,-0.51
2023-01-21T17:56:08.072Z,-0.52
2023-01-21T17:58:55.881Z,-0.53
2023-01-21T18:01:30.600Z,-0.54
2023-01-21T18:04:01.971Z,-0.54
2023-01-21T18:06:37.210Z,-0.52
2023-01-21T18:09:07.851Z,-0.52
2023-01-21T18:11:40.480Z,-0.52
2023-01-21T18:14:20.235Z,-0.52
2023-01-21T18:16:52.041Z,-0.54
2023-01-21T18:19:32.292Z,-0.53
2023-01-21T18:22:09.919Z,-0.56
2023-01-21T18:24:39.556Z,-0.59
2023-01-21T18:27:09.564Z,-0.60
2023-01-21T18:29:40.787Z,-0.63
2023-01-21T18:32:18.868Z,-0.64
2023-01-21T18:34:50.121Z,-0.66
2023-01-21T18:37:21.244Z,-0.71
2023-01-21T18:39:51.375Z,-0.73
2023-01-21T18:42:19.825Z,-0.72
2023-01-21T18:44:51.657Z,-0.74
2023-01-21T18:47:22.382Z,-0.73
2023-01-21T18:49:54.280Z,-0.71
2023-01-21T18:52:24.349Z,-0.76
2023-01-21T18:54:54.222Z,-0.78
2023-01-21T18:57:22.857Z,-0.80
2023-01-21T18:59:55.929Z,-0.83
2023-01-21T19:02:26.004Z,-0.84
2023-01-21T19:04:58.705Z,-0.85
2023-01-21T19:07:28.598Z,-0.89
2023-01-21T19:10:10.463Z,-0.90
2023-01-21T19:12:41.709Z,-0.93
2023-01-21T19:15:25.936Z,-0.94
2023-01-21T19:18:02.643Z,-0.96
2023-01-21T19:20:35.714Z,-0.98
2023-01-21T19:23:07.383Z,-0.99
2023-01-21T19:25:36.756Z,-1.03
2023-01-21T19:28:05.403Z,-1.08
2023-01-21T19:30:39.297Z,-1.10
2023-01-21T19:33:12.392Z,-1.12
2023-01-21T19:35:45.802Z,-1.14
2023-01-21T19:38:21.162Z,-1.14
2023-01-21T19:40:51.852Z,-1.14
2023-01-21T19:43:22.572Z,-1.14
2023-01-21T19:45:53.537Z,-1.15
2023-01-21T19:48:22.204Z,-1.17
2023-01-21T19:50:50.402Z,-1.18
2023-01-21T19:53:21.534Z,-1.21
2023-01-21T19:55:51.360Z,-1.31
2023-01-21T19:58:21.570Z,-1.32
2023-01-21T20:00:51.627Z,-1.31
2023-01-21T20:03:23.603Z,-1.33
2023-01-21T20:05:58.343Z,-1.34
2023-01-21T20:08:31.299Z,-1.34
2023-01-21T20:10:59.905Z,-1.36
2023-01-21T20:13:31.901Z,-1.39
2023-01-21T20:16:03.194Z,-1.41
2023-01-21T20:18:33.116Z,-1.41
2023-01-21T20:21:01.020Z,-1.41
2023-01-21T20:23:29.540Z,-1.41
2023-01-21T20:25:58.622Z,-1.45
2023-01-21T20:28:28.337Z,-1.49
2023-01-21T20:30:56.387Z,-1.51
2023-01-21T20:33:26.938Z,-1.56
2023-01-21T20:35:56.173Z,-1.61
2023-01-21T20:38:31.771Z,-1.66
2023-01-21T20:41:00.499Z,-1.73
2023-01-21T20:43:30.075Z,-1.81
2023-01-21T20:46:02.495Z,-1.91
2023-01-21T20:48:36.052Z,-2.01
2023-01-21T20:51:04.448Z,-2.11
2023-01-21T20:53:32.695Z,-2.19
2023-01-21T20:59:43.534Z,-2.35
2023-01-21T21:02:12.570Z,-2.38
2023-01-21T21:04:40.931Z,-2.40
2023-01-21T21:07:15.436Z,-2.42
2023-01-21T21:09:43.375Z,-2.41
2023-01-21T21:12:11.176Z,-2.44
2023-01-21T21:14:39.262Z,-2.45
2023-01-21T21:17:13.170Z,-2.44
2023-01-21T21:19:40.955Z,-2.43
2023-01-21T21:22:08.828Z,-2.45
2023-01-21T21:24:36.650Z,-2.47
2023-01-21T21:27:04.606Z,-2.48
2023-01-21T21:29:32.605Z,-2.50
2023-01-21T21:32:04.633Z,-2.51
2023-01-21T21:34:34.439Z,-2.50
2023-01-21T21:37:02.363Z,-2.52
2023-01-21T21:39:30.087Z,-2.56
2023-01-21T21:42:16.905Z,-2.62
2023-01-21T21:44:44.687Z,-2.68
2023-01-21T21:47:30.929Z,-2.73
2023-01-21T21:49:59.084Z,-2.74
2023-01-21T21:52:27.108Z,-2.76
2023-01-21T21:54:56.376Z,-2.77
2023-01-21T21:57:24.210Z,-2.79
2023-01-21T21:59:52.117Z,-2.80
2023-01-21T22:02:20.138Z,-2.82
2023-01-21T22:04:48.138Z,-2.79
2023-01-21T22:07:16.174Z,-2.76
2023-01-21T22:09:44.082Z,-2.72
2023-01-21T22:12:11.848Z,-2.68
2023-01-21T22:14:39.788Z,-2.65
2023-01-21T22:17:09.062Z,-2.64
2023-01-21T22:19:37.894Z,-2.63
2023-01-21T22:22:07.171Z,-2.62
2023-01-21T22:24:35.048Z,-2.60
2023-01-21T22:27:02.968Z,-2.59
2023-01-21T22:29:30.988Z,-2.58
2023-01-21T22:31:58.815Z,-2.56
2023-01-21T22:34:26.672Z,-2.57
2023-01-21T22:36:54.686Z,-2.58
2023-01-21T22:39:22.559Z,-2.59
2023-01-21T22:41:50.318Z,-2.59
2023-01-21T22:44:18.294Z,-2.59
2023-01-21T22:46:46.733Z,-2.59
2023-01-21T22:49:14.766Z,-2.59
2023-01-21T22:51:42.627Z,-2.54
2023-01-21T22:54:10.897Z,-2.53
2023-01-21T22:56:52.925Z,-2.53
2023-01-21T22:59:21.439Z,-2.51
2023-01-21T23:01:51.584Z,-2.49
2023-01-21T23:04:19.434Z,-2.50
2023-01-21T23:06:49.130Z,-2.50
2023-01-21T23:09:16.972Z,-2.50
2023-01-21T23:11:45.488Z,-2.48
2023-01-21T23:14:13.390Z,-2.47
2023-01-21T23:16:41.285Z,-2.45
2023-01-21T23:19:09.087Z,-2.43
2023-01-21T23:21:38.939Z,-2.43
2023-01-21T23:24:07.497Z,-2.45
2023-01-21T23:26:35.330Z,-2.45
2023-01-21T23:29:03.226Z,-2.46
2023-01-21T23:31:31.318Z,-2.46
2023-01-21T23:33:59.667Z,-2.47
2023-01-21T23:36:27.436Z,-2.49
2023-01-21T23:38:55.364Z,-2.52
2023-01-21T23:41:23.169Z,-2.55
2023-01-21T23:43:51.091Z,-2.57
2023-01-21T23:46:20.054Z,-2.60
2023-01-21T23:48:48.426Z,-2.66
2023-01-21T23:51:16.963Z,-2.71
2023-01-21T23:53:45.704Z,-2.75
2023-01-21T23:56:15.384Z,-2.78
2023-01-21T23:58:43.275Z,-2.80
